Time;durP1;ratioP1;P1;durP2;ratioP2;P2;SDS_P1;SDS_P2;PMS_P1;PMS_P2;Temp;Humidity;BMP_temperature;BMP_pressure;BME280_temperature;BME280_humidity;BME280_pressure;Samples;Min_cycle;Max_cycle;Signal;HPM_P1;HPM_P2
2023/09/30 00:01:52;;;;;;;7.93;4.13;;;;;;;19.13;69.69;101295.03;4994757;28;21284;-73
2023/09/30 00:04:18;;;;;;;10.80;4.07;;;;;;;19.13;70.25;101299.63;4993759;28;20212;-74
2023/09/30 00:06:46;;;;;;;7.90;3.93;;;;;;;19.10;70.37;101305.72;4994287;28;20211;-73
2023/09/30 00:09:13;;;;;;;9.07;4.63;;;;;;;19.07;70.93;101312.56;4973673;28;20224;-73
2023/09/30 00:11:39;;;;;;;7.90;3.97;;;;;;;19.05;70.92;101314.06;4975287;28;20307;-73
2023/09/30 00:14:06;;;;;;;7.37;4.63;;;;;;;19.01;71.23;101307.88;4996351;28;20239;-73
2023/09/30 00:16:32;;;;;;;7.20;3.83;;;;;;;18.98;71.81;101317.41;4995997;28;20492;-74
2023/09/30 00:18:59;;;;;;;6.67;4.17;;;;;;;18.94;71.51;101318.53;4996303;28;20235;-76
2023/09/30 00:21:25;;;;;;;7.17;4.00;;;;;;;18.87;72.89;101316.50;4997029;28;20267;-73
2023/09/30 00:23:53;;;;;;;7.73;4.20;;;;;;;18.86;71.90;101317.66;4988996;28;20227;-73
2023/09/30 00:26:20;;;;;;;5.87;3.97;;;;;;;18.84;72.48;101319.16;4976050;28;20205;-73
2023/09/30 00:28:47;;;;;;;8.37;3.57;;;;;;;18.81;72.58;101323.31;4994341;28;20201;-74
2023/09/30 00:31:13;;;;;;;6.93;3.93;;;;;;;18.76;73.04;101323.63;4996674;28;20797;-73
2023/09/30 00:33:40;;;;;;;7.17;4.07;;;;;;;18.73;72.53;101329.69;4981100;28;20208;-74
2023/09/30 00:36:08;;;;;;;12.80;4.30;;;;;;;18.74;73.26;101328.56;4995871;28;20212;-72
2023/09/30 00:38:35;;;;;;;8.03;4.47;;;;;;;18.75;71.98;101334.69;4978899;28;20209;-73
2023/09/30 00:41:03;;;;;;;7.53;4.07;;;;;;;18.77;72.90;101330.53;4982908;28;20282;-75
2023/09/30 00:43:29;;;;;;;10.10;4.27;;;;;;;18.80;73.91;101337.84;4981504;28;20216;-73
2023/09/30 00:46:03;;;;;;;8.63;4.30;;;;;;;18.85;73.99;101340.22;4980073;28;20204;-74
2023/09/30 00:48:30;;;;;;;8.83;4.43;;;;;;;18.89;73.75;101337.56;4980127;28;20204;-73
2023/09/30 00:50:57;;;;;;;6.47;3.87;;;;;;;18.92;73.14;101356.34;4979473;28;20228;-73
2023/09/30 00:53:24;;;;;;;7.57;3.57;;;;;;;18.98;73.52;101359.47;4980665;28;20302;-74
2023/09/30 00:55:51;;;;;;;7.33;2.63;;;;;;;19.01;72.68;101359.53;4992740;28;20224;-74
2023/09/30 00:58:19;;;;;;;4.63;1.73;;;;;;;19.03;73.01;101362.59;4978835;28;20433;-74
2023/09/30 01:00:46;;;;;;;2.57;1.60;;;;;;;19.05;72.58;101368.34;4996993;28;20739;-74
2023/09/30 01:03:13;;;;;;;5.20;1.03;;;;;;;19.02;71.49;101379.81;4978845;28;20220;-75
2023/09/30 01:05:39;;;;;;;2.30;0.97;;;;;;;19.02;70.85;101379.81;4996025;28;20230;-73
2023/09/30 01:08:06;;;;;;;1.57;1.00;;;;;;;18.99;70.34;101391.22;4996799;28;20702;-73
2023/09/30 01:10:32;;;;;;;1.90;0.87;;;;;;;18.94;69.82;101396.91;4994560;28;20220;-73
2023/09/30 01:12:59;;;;;;;2.57;0.73;;;;;;;18.87;69.72;101402.16;4979237;28;20211;-73
2023/09/30 01:15:29;;;;;;;3.07;0.87;;;;;;;18.83;69.43;101397.91;4980199;28;20215;-74
2023/09/30 01:17:55;;;;;;;2.10;0.90;;;;;;;18.79;69.71;101405.84;4981908;28;20691;-75
2023/09/30 01:20:23;;;;;;;1.00;0.70;;;;;;;18.70;69.51;101410.69;4981439;28;20913;-73
2023/09/30 01:22:51;;;;;;;1.53;0.80;;;;;;;18.67;69.31;101414.09;4997504;28;20681;-73
2023/09/30 01:25:19;;;;;;;6.67;1.10;;;;;;;18.61;69.48;101417.41;4998414;28;20611;-74
2023/09/30 01:27:45;;;;;;;1.53;1.00;;;;;;;18.55;69.41;101424.22;4996686;28;20613;-75
2023/09/30 01:30:13;;;;;;;2.87;1.10;;;;;;;18.50;69.63;101433.31;4980063;28;20846;-73
2023/09/30 01:32:39;;;;;;;2.67;1.20;;;;;;;18.37;70.02;101441.88;4998006;28;20211;-74
2023/09/30 01:35:07;;;;;;;1.50;0.70;;;;;;;18.32;70.51;101434.16;4977774;28;21258;-73
2023/09/30 01:37:33;;;;;;;2.20;0.90;;;;;;;18.26;70.63;101436.31;4981160;28;20764;-74
2023/09/30 01:40:02;;;;;;;2.40;0.80;;;;;;;18.21;70.58;101454.56;4986553;28;20767;-72
2023/09/30 01:42:28;;;;;;;2.60;0.97;;;;;;;18.11;70.74;101441.75;4995285;28;20295;-73
2023/09/30 01:44:56;;;;;;;2.47;1.10;;;;;;;18.06;70.92;101450.84;4997782;28;20226;-75
2023/09/30 01:47:22;;;;;;;2.90;0.90;;;;;;;18.06;70.82;101450.84;4980389;28;20212;-75
2023/09/30 01:49:49;;;;;;;2.20;0.80;;;;;;;17.99;71.10;101455.28;4981521;28;20232;-74
2023/09/30 01:52:15;;;;;;;3.70;0.80;;;;;;;17.92;70.93;101463.94;4982590;28;20213;-74
2023/09/30 01:54:42;;;;;;;1.80;1.13;;;;;;;17.88;70.76;101462.31;5000375;28;20611;-73
2023/09/30 01:57:09;;;;;;;2.27;0.93;;;;;;;17.87;70.62;101472.25;4999413;28;20205;-74
2023/09/30 01:59:36;;;;;;;2.97;1.00;;;;;;;17.83;70.53;101475.97;4980632;28;20232;-73
2023/09/30 02:02:02;;;;;;;3.93;1.30;;;;;;;17.78;70.66;101478.91;4994445;28;20212;-75
2023/09/30 02:04:29;;;;;;;2.27;1.10;;;;;;;17.74;70.85;101476.16;5000157;28;20224;-73
2023/09/30 02:06:55;;;;;;;5.30;1.00;;;;;;;17.65;70.69;101486.28;4981038;28;20270;-73
2023/09/30 02:09:22;;;;;;;4.30;1.23;;;;;;;17.59;71.00;101482.34;4998103;28;20231;-72
2023/09/30 02:11:48;;;;;;;6.60;1.43;;;;;;;17.58;70.91;101485.34;4980828;28;20322;-73
2023/09/30 02:14:16;;;;;;;5.37;1.47;;;;;;;17.52;71.26;101481.41;4978454;28;20224;-73
2023/09/30 02:16:42;;;;;;;4.67;1.40;;;;;;;17.49;70.79;101480.22;4997751;28;20200;-73
2023/09/30 02:19:10;;;;;;;4.77;1.30;;;;;;;17.47;71.50;101477.13;5000005;28;20595;-73
2023/09/30 02:21:36;;;;;;;3.00;1.30;;;;;;;17.42;70.38;101495.31;4998923;28;21245;-73
2023/09/30 02:24:03;;;;;;;2.57;1.23;;;;;;;17.37;70.26;101499.00;4983493;28;20684;-73
2023/09/30 02:26:29;;;;;;;7.77;1.80;;;;;;;17.35;70.18;101490.59;4983206;28;20211;-75
2023/09/30 02:28:56;;;;;;;3.23;1.20;;;;;;;17.34;70.21;101509.63;4999891;28;20233;-73
2023/09/30 02:31:24;;;;;;;3.50;1.40;;;;;;;17.28;69.75;101509.09;4996005;28;20204;-74
2023/09/30 02:33:50;;;;;;;4.63;1.90;;;;;;;17.23;69.35;101516.63;4982313;28;20220;-73
2023/09/30 02:36:17;;;;;;;7.70;1.60;;;;;;;17.18;69.00;101520.31;4981627;28;20743;-73
2023/09/30 02:38:44;;;;;;;6.80;1.57;;;;;;;17.06;67.42;101517.75;4999524;28;20555;-73
2023/09/30 02:41:10;;;;;;;3.73;1.43;;;;;;;17.01;67.55;101534.03;4983292;28;20391;-74
2023/09/30 02:43:38;;;;;;;4.50;2.03;;;;;;;16.96;67.16;101534.28;4984354;28;20280;-74
2023/09/30 02:46:04;;;;;;;8.23;2.23;;;;;;;16.88;67.41;101534.47;5000452;28;20235;-75
2023/09/30 02:48:32;;;;;;;5.20;1.60;;;;;;;16.80;66.73;101540.72;4990520;28;20596;-74
2023/09/30 02:50:58;;;;;;;7.87;1.67;;;;;;;16.73;67.09;101545.88;4980941;28;20235;-73
2023/09/30 02:53:24;;;;;;;4.73;1.57;;;;;;;16.67;66.99;101542.69;4981397;28;20220;-73
2023/09/30 02:55:55;;;;;;;7.57;1.80;;;;;;;16.63;67.15;101555.19;5000333;28;20215;-73
2023/09/30 02:58:22;;;;;;;6.47;1.53;;;;;;;16.53;67.41;101566.34;5000420;28;20219;-73
2023/09/30 03:00:49;;;;;;;5.07;1.60;;;;;;;16.46;67.57;101568.78;4980891;28;20707;-74
2023/09/30 03:03:15;;;;;;;4.43;1.57;;;;;;;16.36;67.68;101568.50;5000190;28;20211;-73
2023/09/30 03:05:45;;;;;;;5.23;1.57;;;;;;;16.33;67.99;101569.94;5001173;28;20216;-75
2023/09/30 03:08:11;;;;;;;5.43;1.70;;;;;;;16.21;67.55;101580.66;5002121;28;20202;-73
2023/09/30 03:10:40;;;;;;;4.30;1.57;;;;;;;16.08;67.95;101583.69;5000799;28;20243;-73
2023/09/30 03:13:08;;;;;;;7.10;2.07;;;;;;;15.96;68.20;101589.84;5001958;28;20216;-73
2023/09/30 03:15:35;;;;;;;8.37;1.87;;;;;;;15.83;68.40;101590.97;4984525;28;20283;-74
2023/09/30 03:18:03;;;;;;;7.53;2.10;;;;;;;15.78;68.43;101598.41;5003736;28;20214;-73
2023/09/30 03:20:30;;;;;;;6.33;1.67;;;;;;;15.66;68.62;101601.88;5004699;28;20220;-73
2023/09/30 03:22:59;;;;;;;8.30;2.10;;;;;;;15.59;68.69;101614.97;5002584;28;20215;-75
2023/09/30 03:25:25;;;;;;;8.17;2.30;;;;;;;15.49;68.70;101619.94;5002560;28;21265;-73
2023/09/30 03:27:51;;;;;;;4.20;1.50;;;;;;;15.40;69.26;101619.28;5004022;28;20225;-73
2023/09/30 03:30:19;;;;;;;6.67;1.90;;;;;;;15.34;69.37;101623.25;5003766;28;20217;-74
2023/09/30 03:32:46;;;;;;;5.70;2.10;;;;;;;15.24;69.41;101621.00;5004101;28;20623;-73
2023/09/30 03:35:16;;;;;;;7.53;2.10;;;;;;;15.17;69.39;101626.84;5004969;28;20202;-73
2023/09/30 03:37:43;;;;;;;4.67;2.07;;;;;;;15.09;69.77;101618.97;5004372;28;20559;-73
2023/09/30 03:40:14;;;;;;;7.27;1.90;;;;;;;14.99;69.45;101619.41;5001541;28;20704;-73
2023/09/30 03:42:42;;;;;;;6.77;1.83;;;;;;;14.91;69.75;101621.03;5003379;28;20301;-73
2023/09/30 03:45:09;;;;;;;3.73;1.70;;;;;;;14.82;70.40;101636.34;5002444;28;20297;-73
2023/09/30 03:47:36;;;;;;;7.70;2.17;;;;;;;14.78;70.71;101637.28;5004332;28;21141;-73
2023/09/30 03:50:04;;;;;;;7.37;2.20;;;;;;;14.70;70.22;101643.47;5001926;28;20231;-73
2023/09/30 03:52:32;;;;;;;11.47;2.30;;;;;;;14.65;70.79;101649.75;5002611;28;20208;-73
2023/09/30 03:54:59;;;;;;;8.73;2.30;;;;;;;14.56;70.87;101657.06;5002818;28;20266;-73
2023/09/30 03:57:27;;;;;;;5.53;2.30;;;;;;;14.50;70.72;101658.31;5005374;28;20208;-73
2023/09/30 03:59:54;;;;;;;6.43;1.93;;;;;;;14.44;71.09;101664.94;5004510;28;20279;-73
2023/09/30 04:02:21;;;;;;;9.87;2.93;;;;;;;14.35;71.85;101676.75;5003982;28;20204;-73
2023/09/30 04:04:49;;;;;;;7.97;2.10;;;;;;;14.30;71.13;101668.97;5004406;28;20599;-73
2023/09/30 04:07:16;;;;;;;6.47;2.00;;;;;;;14.25;72.61;101677.94;5006069;28;20208;-72
2023/09/30 04:09:43;;;;;;;6.17;2.37;;;;;;;14.20;72.49;101672.81;5007157;28;20672;-73
2023/09/30 04:12:09;;;;;;;6.03;1.97;;;;;;;14.13;72.83;101682.34;5009680;28;20203;-73
2023/09/30 04:14:36;;;;;;;7.33;2.43;;;;;;;14.05;73.16;101678.63;5010162;28;20212;-72
2023/09/30 04:17:03;;;;;;;8.53;2.30;;;;;;;13.99;73.01;101687.09;5010689;28;20210;-73
2023/09/30 04:19:30;;;;;;;7.13;1.90;;;;;;;13.89;73.37;101682.94;5009752;28;20748;-74
2023/09/30 04:21:57;;;;;;;10.23;2.33;;;;;;;13.85;74.17;101686.53;5010677;28;20209;-73
2023/09/30 04:24:23;;;;;;;8.90;2.17;;;;;;;13.76;74.96;101693.78;4992144;28;20283;-73
2023/09/30 04:26:50;;;;;;;9.70;2.47;;;;;;;13.70;75.38;101692.38;5006973;28;20230;-73
2023/09/30 04:29:17;;;;;;;14.33;2.50;;;;;;;13.64;75.48;101704.28;5009014;28;20269;-73
2023/09/30 04:31:44;;;;;;;8.80;2.50;;;;;;;13.58;76.32;101701.03;4992195;28;20220;-73
2023/09/30 04:34:11;;;;;;;5.57;1.87;;;;;;;13.50;76.74;101701.06;5006579;28;20208;-73
2023/09/30 04:36:37;;;;;;;8.00;2.53;;;;;;;13.43;76.43;101700.75;5006346;28;20278;-73
2023/09/30 04:39:05;;;;;;;9.30;2.37;;;;;;;13.35;76.81;101712.97;4993110;28;20236;-73
2023/09/30 04:41:31;;;;;;;6.30;2.43;;;;;;;13.30;77.13;101715.78;5007041;28;20652;-73
2023/09/30 04:43:58;;;;;;;9.90;2.40;;;;;;;13.24;77.21;101710.97;5008133;28;20208;-73
2023/09/30 04:46:24;;;;;;;8.07;2.20;;;;;;;13.19;77.89;101711.16;5011317;28;20219;-72
2023/09/30 04:48:52;;;;;;;12.30;2.40;;;;;;;13.14;78.73;101727.22;5011272;28;20305;-73
2023/09/30 04:51:18;;;;;;;12.07;2.60;;;;;;;13.06;79.43;101720.84;4990831;28;20198;-74
2023/09/30 04:53:46;;;;;;;10.53;2.90;;;;;;;13.04;79.41;101730.19;5007972;28;20217;-73
2023/09/30 04:56:13;;;;;;;8.13;2.60;;;;;;;13.01;79.58;101734.25;5009885;28;20202;-73
2023/09/30 04:58:39;;;;;;;14.47;3.17;;;;;;;12.99;80.46;101733.00;5012409;28;20217;-73
2023/09/30 05:01:08;;;;;;;9.57;2.53;;;;;;;12.96;80.70;101733.63;4992286;28;20571;-73
2023/09/30 05:03:35;;;;;;;10.93;2.50;;;;;;;12.92;80.61;101730.00;5011725;28;20311;-72
2023/09/30 05:06:03;;;;;;;9.60;2.53;;;;;;;12.86;80.28;101739.19;5011486;28;20214;-72
2023/09/30 05:08:30;;;;;;;8.60;2.80;;;;;;;12.82;81.54;101743.56;5013102;28;20210;-73
2023/09/30 05:10:57;;;;;;;8.83;2.43;;;;;;;12.77;81.18;101736.56;5013235;28;20488;-72
2023/09/30 05:13:24;;;;;;;11.33;2.87;;;;;;;12.73;81.54;101738.25;4992990;28;20214;-73
2023/09/30 05:15:51;;;;;;;10.40;3.27;;;;;;;12.72;81.48;101749.16;5012477;28;20198;-72
2023/09/30 05:18:17;;;;;;;12.70;2.80;;;;;;;12.69;82.11;101747.16;5009638;28;20607;-72
2023/09/30 05:20:44;;;;;;;12.50;3.27;;;;;;;12.65;81.47;101764.75;5009157;28;20226;-73
2023/09/30 05:23:12;;;;;;;7.13;2.60;;;;;;;12.63;81.79;101765.06;5007782;28;20200;-72
2023/09/30 05:25:39;;;;;;;8.90;2.90;;;;;;;12.62;82.85;101768.03;5007009;28;20217;-72
2023/09/30 05:28:06;;;;;;;10.77;3.50;;;;;;;12.61;83.45;101763.81;5011027;28;20204;-72
2023/09/30 05:30:33;;;;;;;12.77;3.30;;;;;;;12.60;83.31;101775.50;5010829;28;20563;-73
2023/09/30 05:32:59;;;;;;;8.43;3.20;;;;;;;12.60;83.86;101772.84;5008753;28;20197;-73
2023/09/30 05:35:26;;;;;;;9.30;3.00;;;;;;;12.60;84.18;101775.50;5009464;28;20197;-72
2023/09/30 05:37:52;;;;;;;8.33;3.00;;;;;;;12.59;84.42;101777.41;5008695;28;20210;-72
2023/09/30 05:40:24;;;;;;;13.10;3.37;;;;;;;12.61;84.51;101774.41;5007535;28;20221;-72
2023/09/30 05:42:51;;;;;;;13.57;3.30;;;;;;;12.60;84.93;101778.94;5007797;28;20297;-73
2023/09/30 05:45:18;;;;;;;9.30;3.13;;;;;;;12.62;85.46;101773.34;5009433;28;20208;-73
2023/09/30 05:47:45;;;;;;;12.30;3.03;;;;;;;12.59;84.81;101777.41;5007952;28;20213;-72
2023/09/30 05:50:15;;;;;;;12.33;3.50;;;;;;;12.60;85.03;101778.94;4986346;28;20237;-73
2023/09/30 05:52:41;;;;;;;11.80;3.17;;;;;;;12.60;84.96;101788.75;5008599;28;20221;-72
2023/09/30 05:55:09;;;;;;;16.33;3.97;;;;;;;12.61;84.69;101787.66;5008238;28;20212;-72
2023/09/30 05:57:36;;;;;;;15.80;3.70;;;;;;;12.61;84.94;101766.47;5007592;28;20205;-73
2023/09/30 06:00:06;;;;;;;8.43;3.00;;;;;;;12.62;84.86;101768.03;5007421;28;20349;-73
2023/09/30 06:02:39;;;;;;;15.57;4.10;;;;;;;12.63;84.98;101775.66;5002939;28;20204;-73
2023/09/30 06:05:06;;;;;;;13.23;3.30;;;;;;;12.66;85.25;101780.34;5007115;28;20703;-72
2023/09/30 06:07:33;;;;;;;9.00;3.70;;;;;;;12.68;85.38;101778.16;5008148;28;20228;-73
2023/09/30 06:10:02;;;;;;;11.07;3.37;;;;;;;12.72;85.54;101781.75;5005343;28;20319;-74
2023/09/30 06:12:29;;;;;;;13.17;3.60;;;;;;;12.74;85.18;101779.56;5006463;28;20242;-73
2023/09/30 06:14:56;;;;;;;13.03;3.53;;;;;;;12.78;84.74;101785.06;5005952;28;20567;-72
2023/09/30 06:17:23;;;;;;;12.37;3.63;;;;;;;12.82;85.49;101786.75;4987921;28;20218;-73
2023/09/30 06:19:50;;;;;;;13.87;3.90;;;;;;;12.88;85.65;101782.09;5005679;28;20221;-72
2023/09/30 06:22:17;;;;;;;8.17;3.50;;;;;;;12.94;85.86;101788.81;5005531;28;20201;-72
2023/09/30 06:24:43;;;;;;;9.40;4.03;;;;;;;12.98;84.35;101801.16;5005459;28;20250;-73
2023/09/30 06:27:13;;;;;;;19.80;3.73;;;;;;;13.07;83.80;101798.50;5004440;28;20218;-72
2023/09/30 06:29:40;;;;;;;16.53;3.77;;;;;;;13.13;83.19;101807.84;5002360;28;20223;-73
2023/09/30 06:32:08;;;;;;;16.80;4.30;;;;;;;13.25;84.79;101810.69;5005735;28;20214;-73
2023/09/30 06:34:35;;;;;;;12.40;3.17;;;;;;;13.35;85.32;101818.31;5006452;28;20203;-73
2023/09/30 06:37:02;;;;;;;10.60;3.10;;;;;;;13.45;85.00;101833.91;5005070;28;20196;-72
2023/09/30 06:39:29;;;;;;;13.83;3.53;;;;;;;13.50;84.02;101842.47;5004195;28;20601;-73
2023/09/30 06:41:55;;;;;;;12.83;3.00;;;;;;;13.60;84.10;101849.31;5003454;28;20212;-74
2023/09/30 06:44:24;;;;;;;13.10;3.57;;;;;;;13.69;83.51;101856.22;4999048;28;20216;-74
2023/09/30 06:46:51;;;;;;;11.73;3.30;;;;;;;13.78;82.52;101862.28;4999825;28;20217;-74
2023/09/30 06:49:18;;;;;;;10.27;3.40;;;;;;;13.90;83.04;101872.25;4999424;28;20231;-74
2023/09/30 06:51:45;;;;;;;12.80;3.00;;;;;;;14.00;82.49;101872.69;4984297;28;20207;-75
2023/09/30 06:54:12;;;;;;;11.87;3.03;;;;;;;14.10;81.74;101869.69;4999587;28;21423;-75
2023/09/30 06:56:38;;;;;;;13.73;2.80;;;;;;;14.20;81.36;101874.69;4997204;28;20479;-76
2023/09/30 06:59:06;;;;;;;10.57;2.73;;;;;;;14.29;80.91;101886.06;4995582;28;20235;-76
2023/09/30 07:01:32;;;;;;;14.67;3.40;;;;;;;14.39;79.88;101884.94;4999286;28;20203;-76
2023/09/30 07:03:59;;;;;;;13.77;3.07;;;;;;;14.49;79.65;101890.66;5000329;28;20223;-75
2023/09/30 07:06:27;;;;;;;11.30;3.00;;;;;;;14.61;79.62;101893.44;4998905;28;20221;-75
2023/09/30 07:08:53;;;;;;;9.00;2.83;;;;;;;14.70;79.55;101898.72;4982764;28;20440;-75
2023/09/30 07:11:27;;;;;;;6.07;2.50;;;;;;;14.81;79.44;101902.56;4998697;28;20782;-75
2023/09/30 07:13:54;;;;;;;7.30;2.60;;;;;;;14.97;79.05;101903.56;4980667;28;20230;-75
2023/09/30 07:16:20;;;;;;;6.43;2.47;;;;;;;15.06;78.34;101905.06;4998445;28;20197;-75
2023/09/30 07:18:47;;;;;;;12.20;2.80;;;;;;;15.14;77.30;101906.91;4982193;28;20219;-75
2023/09/30 07:21:14;;;;;;;11.53;2.67;;;;;;;15.22;77.52;101911.38;4999766;28;20212;-75
2023/09/30 07:23:41;;;;;;;8.07;2.97;;;;;;;15.26;76.19;101906.97;4998176;28;20197;-75
2023/09/30 07:26:08;;;;;;;9.80;2.57;;;;;;;15.32;76.15;101915.53;5000570;28;20454;-75
2023/09/30 07:28:34;;;;;;;9.37;2.70;;;;;;;15.37;75.87;101913.47;4990013;28;20202;-75
2023/09/30 07:31:01;;;;;;;12.73;2.50;;;;;;;15.45;75.50;101919.84;4995134;28;20801;-75
2023/09/30 07:33:27;;;;;;;6.50;2.30;;;;;;;15.56;75.41;101918.34;4993402;28;20544;-75
2023/09/30 07:35:55;;;;;;;9.37;2.53;;;;;;;15.68;75.13;101913.84;4996316;28;20206;-75
2023/09/30 07:38:22;;;;;;;9.47;2.70;;;;;;;15.78;74.26;101918.00;4994844;28;20220;-75
2023/09/30 07:40:50;;;;;;;8.17;2.60;;;;;;;15.87;74.97;101919.47;4995203;28;20540;-75
2023/09/30 07:43:17;;;;;;;9.80;2.50;;;;;;;15.99;73.98;101924.84;4994744;28;20239;-75
2023/09/30 07:45:44;;;;;;;5.83;2.20;;;;;;;16.08;73.89;101922.88;4994977;28;20341;-75
2023/09/30 07:48:10;;;;;;;7.40;2.43;;;;;;;16.18;73.28;101919.00;4994234;28;20210;-75
2023/09/30 07:50:37;;;;;;;11.77;2.93;;;;;;;16.26;72.47;101923.47;4995210;28;20224;-75
2023/09/30 07:53:04;;;;;;;9.80;2.37;;;;;;;16.29;72.00;101920.13;4976864;28;20311;-75
2023/09/30 07:55:30;;;;;;;5.83;2.47;;;;;;;16.35;71.81;101924.16;4994306;28;22036;-75
2023/09/30 07:57:59;;;;;;;10.67;1.97;;;;;;;16.35;70.89;101924.91;4994885;28;20286;-75
2023/09/30 08:00:25;;;;;;;12.67;2.63;;;;;;;16.37;71.27;101933.38;4992938;28;20219;-75
2023/09/30 08:02:52;;;;;;;9.90;2.50;;;;;;;16.38;71.24;101924.28;4995283;28;20222;-75
2023/09/30 08:05:18;;;;;;;6.17;1.90;;;;;;;16.42;70.26;101935.06;4977762;28;20458;-75
2023/09/30 08:07:45;;;;;;;11.07;2.60;;;;;;;16.46;70.12;101931.41;4993750;28;20216;-75
2023/09/30 08:10:13;;;;;;;6.13;2.13;;;;;;;16.51;70.33;101925.84;4993862;28;20284;-75
2023/09/30 08:12:40;;;;;;;10.37;2.30;;;;;;;16.56;70.14;101919.53;4993227;28;20213;-75
2023/09/30 08:15:11;;;;;;;6.77;2.20;;;;;;;16.60;70.00;101939.88;4993221;28;20207;-75
2023/09/30 08:17:38;;;;;;;7.57;2.20;;;;;;;16.66;69.91;101933.19;4995261;28;20200;-75
2023/09/30 08:20:05;;;;;;;8.87;2.83;;;;;;;16.73;70.04;101940.66;4978462;28;21789;-74
2023/09/30 08:22:31;;;;;;;6.47;2.17;;;;;;;16.78;69.32;101946.56;4995334;28;20253;-75
2023/09/30 08:24:58;;;;;;;10.67;2.10;;;;;;;16.83;68.95;101945.56;4984055;28;20219;-75
2023/09/30 08:27:25;;;;;;;8.60;2.53;;;;;;;16.87;67.83;101949.13;4991901;28;20270;-75
2023/09/30 08:29:51;;;;;;;7.73;2.30;;;;;;;16.89;68.29;101941.53;4992041;28;20850;-75
2023/09/30 08:32:19;;;;;;;8.03;2.33;;;;;;;16.90;68.60;101941.22;4995667;28;20209;-75
2023/09/30 08:34:45;;;;;;;15.33;3.00;;;;;;;16.95;68.11;101935.66;4994613;28;20204;-75
2023/09/30 08:37:12;;;;;;;6.70;2.53;;;;;;;16.99;68.39;101928.53;4991309;28;20295;-74
2023/09/30 08:39:39;;;;;;;10.57;2.53;;;;;;;17.06;68.07;101930.63;4974722;28;20224;-75
2023/09/30 08:42:09;;;;;;;8.03;2.30;;;;;;;17.13;67.38;101938.84;4995087;28;20717;-75
2023/09/30 08:44:38;;;;;;;8.13;2.17;;;;;;;17.18;67.77;101944.72;4993336;28;20212;-75
2023/09/30 08:47:06;;;;;;;8.57;2.37;;;;;;;17.16;66.84;101949.63;4992820;28;20220;-75
2023/09/30 08:49:35;;;;;;;8.57;2.27;;;;;;;17.21;67.54;101956.63;4992402;28;20697;-75
2023/09/30 08:52:03;;;;;;;8.47;2.90;;;;;;;17.19;66.37;101946.28;4969395;28;20220;-74
2023/09/30 08:54:29;;;;;;;8.77;2.40;;;;;;;17.21;66.66;101956.63;4993785;28;20201;-74
2023/09/30 08:56:56;;;;;;;8.00;2.30;;;;;;;17.23;67.46;101951.75;4993745;28;20209;-74
2023/09/30 08:59:24;;;;;;;7.47;1.93;;;;;;;17.26;66.06;101951.84;4969861;28;20597;-75
2023/09/30 09:01:50;;;;;;;6.90;2.10;;;;;;;17.33;66.07;101961.97;4995514;28;20298;-74
2023/09/30 09:04:18;;;;;;;8.00;2.83;;;;;;;17.36;65.64;101958.59;4995511;28;20205;-75
2023/09/30 09:06:45;;;;;;;9.83;2.43;;;;;;;17.46;65.96;101948.28;4978006;28;20220;-76
2023/09/30 09:09:16;;;;;;;10.30;2.43;;;;;;;17.57;65.95;101948.56;4999275;28;20232;-76
2023/09/30 09:11:43;;;;;;;10.60;2.13;;;;;;;17.64;65.83;101946.88;5008751;28;20893;-76
2023/09/30 09:14:10;;;;;;;5.33;2.07;;;;;;;17.75;65.37;101939.16;5013500;28;20220;-76
2023/09/30 09:16:36;;;;;;;9.00;2.43;;;;;;;17.84;63.74;101947.78;5008834;28;20215;-76
2023/09/30 09:19:14;;;;;;;11.67;3.03;;;;;;;17.94;63.77;101945.41;5009807;28;20244;-76
2023/09/30 09:21:56;;;;;;;9.03;2.43;;;;;;;18.03;63.06;101954.06;5009420;28;20180;-76
2023/09/30 09:24:31;;;;;;;7.63;2.20;;;;;;;18.11;63.31;101953.13;5010655;28;20213;-75
2023/09/30 09:27:08;;;;;;;9.50;2.70;;;;;;;18.14;62.81;101957.00;5004299;28;20361;-75
2023/09/30 09:29:35;;;;;;;7.83;2.17;;;;;;;18.13;62.42;101963.47;5008861;28;20288;-75
2023/09/30 09:32:08;;;;;;;7.27;2.40;;;;;;;18.11;62.06;101963.81;4995507;28;20700;-74
2023/09/30 09:34:36;;;;;;;11.10;2.20;;;;;;;18.16;62.13;101966.22;4993903;28;20205;-74
2023/09/30 09:37:14;;;;;;;6.73;2.03;;;;;;;18.16;61.80;101968.16;4991879;28;20279;-74
2023/09/30 09:39:40;;;;;;;6.67;2.00;;;;;;;18.20;62.71;101956.41;4991917;28;20302;-75
2023/09/30 09:42:06;;;;;;;9.63;2.10;;;;;;;18.24;63.28;101967.19;4993339;28;20200;-75
2023/09/30 09:44:35;;;;;;;7.00;2.17;;;;;;;18.21;62.26;101968.66;4991802;28;20351;-74
2023/09/30 09:47:06;;;;;;;10.50;2.40;;;;;;;18.23;62.67;101965.66;4994998;28;20773;-74
2023/09/30 09:49:33;;;;;;;8.37;2.13;;;;;;;18.19;61.99;101968.22;4991746;28;20266;-74
2023/09/30 09:52:02;;;;;;;12.03;2.30;;;;;;;18.14;61.51;101971.16;4992394;28;20675;-74
2023/09/30 09:54:30;;;;;;;10.37;2.50;;;;;;;18.18;60.86;101965.91;4991462;28;20589;-75
2023/09/30 09:56:59;;;;;;;7.43;2.13;;;;;;;18.16;60.91;101963.56;4991371;28;21203;-76
2023/09/30 09:59:28;;;;;;;8.03;1.90;;;;;;;18.22;61.00;101967.53;4991290;28;20328;-75
2023/09/30 10:01:56;;;;;;;9.97;2.50;;;;;;;18.24;61.36;101969.88;4974403;28;20208;-76
2023/09/30 10:04:23;;;;;;;7.73;2.17;;;;;;;18.29;61.78;101972.28;4990813;28;20258;-75
2023/09/30 10:06:55;;;;;;;7.53;2.40;;;;;;;18.30;61.77;101961.25;4991756;28;20224;-75
2023/09/30 10:09:22;;;;;;;11.50;2.40;;;;;;;18.31;59.38;101970.81;4991388;28;20240;-74
2023/09/30 10:11:58;;;;;;;14.13;2.73;;;;;;;18.34;59.69;101962.16;4993175;28;20211;-75
2023/09/30 10:14:32;;;;;;;5.97;2.13;;;;;;;18.41;60.40;101964.22;4991025;28;20234;-75
2023/09/30 10:16:59;;;;;;;6.60;2.13;;;;;;;18.50;59.67;101962.16;4993470;28;20351;-75
2023/09/30 10:19:27;;;;;;;5.17;2.03;;;;;;;18.59;60.86;101968.13;4991966;28;20224;-75
2023/09/30 10:22:22;;;;;;;8.27;2.20;;;;;;;18.70;60.42;101977.19;4990784;28;20220;-75
2023/09/30 10:24:50;;;;;;;4.93;1.90;;;;;;;18.74;58.54;101970.78;4972358;28;20212;-76
2023/09/30 10:27:37;;;;;;;8.37;1.90;;;;;;;18.86;57.76;101977.94;4990832;28;20260;-76
2023/09/30 10:30:17;;;;;;;7.20;2.23;;;;;;;18.98;58.67;101967.13;4990778;28;20774;-76
2023/09/30 10:33:09;;;;;;;5.73;1.80;;;;;;;19.11;58.78;101971.25;4987450;28;20921;-75
2023/09/30 10:35:51;;;;;;;9.80;2.00;;;;;;;19.19;56.72;101967.63;4989559;28;20292;-75
2023/09/30 10:38:37;;;;;;;7.63;2.20;;;;;;;19.21;56.65;101974.22;4966762;28;20248;-76
2023/09/30 10:41:04;;;;;;;6.23;1.60;;;;;;;19.19;56.36;101965.72;4984156;28;20212;-75
2023/09/30 10:43:32;;;;;;;7.47;1.80;;;;;;;19.20;56.14;101964.56;4985105;28;20227;-76
2023/09/30 10:45:59;;;;;;;8.47;1.90;;;;;;;19.27;56.69;101959.44;4987528;28;20303;-76
2023/09/30 10:48:40;;;;;;;6.93;1.67;;;;;;;19.32;55.49;101961.03;4985542;28;20237;-76
2023/09/30 10:51:15;;;;;;;5.77;1.77;;;;;;;19.37;54.91;101952.72;4982444;28;21236;-76
2023/09/30 10:53:46;;;;;;;7.53;1.87;;;;;;;19.46;55.00;101954.06;4983941;28;20210;-75
2023/09/30 10:56:12;;;;;;;7.50;1.97;;;;;;;19.54;55.67;101957.66;4977870;28;20951;-75
2023/09/30 10:58:44;;;;;;;10.17;2.03;;;;;;;19.55;55.08;101957.31;4987134;28;20208;-75
2023/09/30 11:01:12;;;;;;;6.27;2.00;;;;;;;19.60;55.03;101970.44;4967685;28;20212;-75
2023/09/30 11:03:38;;;;;;;4.63;1.90;;;;;;;19.61;55.12;101963.19;4966518;28;20294;-75
2023/09/30 11:06:05;;;;;;;7.03;2.20;;;;;;;19.64;54.76;101965.16;4986647;28;20861;-76
2023/09/30 11:08:33;;;;;;;9.70;1.70;;;;;;;19.68;56.82;101956.06;4985192;28;20225;-75
2023/09/30 11:11:00;;;;;;;10.57;2.63;;;;;;;19.68;52.98;101949.91;4985451;28;20223;-76
2023/09/30 11:13:33;;;;;;;6.97;2.17;;;;;;;19.69;53.94;101957.63;4985028;28;20240;-75
2023/09/30 11:16:05;;;;;;;5.57;1.43;;;;;;;19.75;54.90;101950.84;4985874;28;20249;-75
2023/09/30 11:18:32;;;;;;;7.47;1.90;;;;;;;19.74;53.36;101948.50;4980347;28;20222;-75
2023/09/30 11:21:07;;;;;;;8.90;2.43;;;;;;;19.79;53.45;101946.31;4987641;28;20968;-75
2023/09/30 11:23:34;;;;;;;3.60;1.37;;;;;;;19.84;52.50;101953.28;4986457;28;20246;-75
2023/09/30 11:26:00;;;;;;;7.23;1.60;;;;;;;19.78;51.84;101954.72;4986378;28;20745;-76
2023/09/30 11:28:36;;;;;;;7.33;1.97;;;;;;;19.73;52.32;101947.75;4986462;28;20727;-75